createdAt,value
2022-10-18T00:00:08.705Z,101212.88
2022-10-18T00:02:58.133Z,101207.63
2022-10-18T00:05:45.221Z,101185.00
2022-10-18T00:08:32.184Z,101198.91
2022-10-18T00:11:19.159Z,101159.84
2022-10-18T00:14:06.059Z,101191.91
2022-10-18T00:16:52.991Z,101188.56
2022-10-18T00:19:39.942Z,101189.41
2022-10-18T00:22:26.877Z,101186.75
2022-10-18T00:25:13.866Z,101186.00
2022-10-18T00:28:00.843Z,101191.31
2022-10-18T00:30:47.793Z,101167.78
2022-10-18T00:33:34.837Z,101173.09
2022-10-18T00:36:21.837Z,101181.81
2022-10-18T00:39:09.595Z,101154.25
2022-10-18T00:41:58.127Z,101171.53
2022-10-18T00:44:45.111Z,101182.91
2022-10-18T00:47:34.514Z,101128.44
2022-10-18T00:50:24.841Z,101175.94
2022-10-18T00:53:18.771Z,101168.94
2022-10-18T00:56:06.080Z,101181.34
2022-10-18T00:58:52.913Z,101166.47
2022-10-18T01:01:40.101Z,101163.91
2022-10-18T01:04:27.095Z,101159.56
2022-10-18T01:07:24.285Z,101160.53
2022-10-18T01:10:23.582Z,101150.06
2022-10-18T01:13:16.453Z,101152.72
2022-10-18T01:16:09.209Z,101159.81
2022-10-18T01:19:22.844Z,101152.91
2022-10-18T01:22:12.659Z,101153.84
2022-10-18T01:25:12.315Z,101150.38
2022-10-18T01:28:38.466Z,101050.91
2022-10-18T01:31:41.349Z,101142.63
2022-10-18T01:34:30.876Z,101144.44
2022-10-18T01:37:20.554Z,101124.47
2022-10-18T01:40:14.996Z,101135.75
2022-10-18T01:45:54.036Z,101150.78
2022-10-18T01:48:41.474Z,101139.41
2022-10-18T01:51:29.603Z,101153.50
2022-10-18T01:54:17.125Z,101130.75
2022-10-18T01:57:29.623Z,101117.78
2022-10-18T02:00:20.156Z,101142.22
2022-10-18T02:03:20.451Z,101044.31
2022-10-18T02:06:07.580Z,101128.19
2022-10-18T02:08:54.513Z,101137.91
2022-10-18T02:11:42.098Z,100977.66
2022-10-18T02:14:33.017Z,100971.66
2022-10-18T02:17:25.735Z,101131.84
2022-10-18T02:20:15.697Z,101137.97
2022-10-18T02:23:04.383Z,101118.72
2022-10-18T02:25:53.739Z,101000.41
2022-10-18T02:28:42.035Z,101131.88
2022-10-18T02:32:06.237Z,101121.38
2022-10-18T02:35:00.855Z,101132.81
2022-10-18T02:37:53.353Z,101115.25
2022-10-18T02:40:40.829Z,101124.03
2022-10-18T02:43:27.856Z,101119.69
2022-10-18T02:46:15.077Z,100984.91
2022-10-18T02:49:01.953Z,101021.00
2022-10-18T02:51:49.260Z,101108.41
2022-10-18T02:54:36.365Z,101101.50
2022-10-18T02:57:23.360Z,101111.88
2022-10-18T03:00:10.166Z,100956.09
2022-10-18T03:02:57.365Z,101110.22
2022-10-18T03:05:44.191Z,101008.03
2022-10-18T03:08:31.169Z,101107.69
2022-10-18T03:11:18.152Z,101110.44
2022-10-18T03:14:05.203Z,101076.75
2022-10-18T03:16:52.047Z,100939.09
2022-10-18T03:19:19.327Z,101119.31
2022-10-18T03:21:46.245Z,101116.75
2022-10-18T03:24:13.101Z,101118.53
2022-10-18T03:26:40.110Z,101115.06
2022-10-18T03:29:07.082Z,101137.97
2022-10-18T03:31:54.032Z,101129.22
2022-10-18T03:34:40.877Z,101127.53
2022-10-18T03:37:27.847Z,101145.16
2022-10-18T03:40:14.903Z,101044.63
2022-10-18T03:43:01.830Z,101131.22
2022-10-18T03:45:48.796Z,101127.78
2022-10-18T03:48:35.797Z,101131.31
2022-10-18T03:51:22.755Z,101107.94
2022-10-18T03:54:09.682Z,101122.72
2022-10-18T03:56:56.597Z,101036.13
2022-10-18T03:59:43.619Z,101035.31
2022-10-18T04:02:30.881Z,101104.59
2022-10-18T04:05:17.967Z,101122.94
2022-10-18T04:08:04.861Z,101123.88
2022-10-18T04:10:51.939Z,101127.41
2022-10-18T04:13:38.880Z,101125.72
2022-10-18T04:16:26.479Z,101125.75
2022-10-18T04:19:13.520Z,101121.41
2022-10-18T04:22:00.557Z,101130.25
2022-10-18T04:24:47.428Z,101133.59
2022-10-18T04:27:34.712Z,101125.78
2022-10-18T04:30:21.895Z,101124.94
2022-10-18T04:33:08.897Z,101137.25
2022-10-18T04:35:56.296Z,101127.63
2022-10-18T04:38:43.320Z,100951.88
2022-10-18T04:41:30.193Z,101111.38
2022-10-18T04:44:17.381Z,101096.63
2022-10-18T04:47:04.353Z,100971.94
2022-10-18T04:49:51.332Z,101129.66
2022-10-18T04:52:38.283Z,101133.25
2022-10-18T04:55:25.697Z,101128.88
2022-10-18T04:58:13.309Z,101084.13
2022-10-18T05:01:00.560Z,101132.50
2022-10-18T05:03:47.641Z,100975.78
2022-10-18T05:06:34.552Z,101139.56
2022-10-18T05:09:21.362Z,101039.16
2022-10-18T05:12:08.557Z,101142.28
2022-10-18T05:14:56.828Z,101127.56
2022-10-18T05:17:44.049Z,101151.13
2022-10-18T05:20:30.984Z,101146.69
2022-10-18T05:23:18.434Z,100998.75
2022-10-18T05:26:05.274Z,101156.41
2022-10-18T05:28:53.895Z,101152.88
2022-10-18T05:31:40.840Z,101149.34
2022-10-18T05:34:28.230Z,101165.16
2022-10-18T05:37:15.062Z,101159.00
2022-10-18T05:40:01.996Z,101159.88
2022-10-18T05:42:49.000Z,101159.88
2022-10-18T05:45:35.997Z,101162.53
2022-10-18T05:48:22.878Z,101164.28
2022-10-18T05:51:09.898Z,101163.41
2022-10-18T05:53:56.825Z,101149.38
2022-10-18T05:56:43.779Z,101140.78
2022-10-18T05:59:31.010Z,101153.88
2022-10-18T06:02:18.003Z,101166.00
2022-10-18T06:05:05.191Z,101172.16
2022-10-18T06:07:52.168Z,101145.19
2022-10-18T06:10:39.084Z,101168.63
2022-10-18T06:13:25.952Z,101167.72
2022-10-18T06:16:16.837Z,101161.59
2022-10-18T06:19:08.064Z,101152.97
2022-10-18T06:21:55.155Z,101162.44
2022-10-18T06:24:42.044Z,101162.47
2022-10-18T06:27:29.341Z,101139.03
2022-10-18T06:30:16.588Z,101170.28
2022-10-18T06:33:04.024Z,101172.06
2022-10-18T06:35:50.868Z,101172.06
2022-10-18T06:38:37.856Z,101166.84
2022-10-18T06:41:26.180Z,101174.69
2022-10-18T06:44:14.152Z,101167.81
2022-10-18T06:47:02.053Z,101180.75
2022-10-18T06:49:49.339Z,101180.78
2022-10-18T06:52:39.503Z,101183.38
2022-10-18T06:55:27.468Z,101174.72
2022-10-18T06:58:14.463Z,101183.34
2022-10-18T07:01:01.566Z,101127.91
2022-10-18T07:03:48.516Z,101189.47
2022-10-18T07:06:37.692Z,101192.06
2022-10-18T07:09:24.678Z,101199.94
2022-10-18T07:12:11.713Z,101199.94
2022-10-18T07:14:58.848Z,101198.19
2022-10-18T07:17:46.910Z,101123.63
2022-10-18T07:20:33.895Z,101202.56
2022-10-18T07:23:21.220Z,101181.69
2022-10-18T07:26:08.207Z,101202.47
2022-10-18T07:28:55.555Z,101193.88
2022-10-18T07:31:42.804Z,101214.69
2022-10-18T07:34:32.771Z,101217.31
2022-10-18T07:37:21.834Z,101193.88
2022-10-18T07:40:10.612Z,101219.00
2022-10-18T07:42:59.824Z,101227.75
2022-10-18T07:45:49.730Z,101236.50
2022-10-18T07:48:36.798Z,101215.56
2022-10-18T07:51:24.421Z,101246.03
2022-10-18T07:54:11.604Z,101245.97
2022-10-18T07:56:58.583Z,101250.28
2022-10-18T07:59:45.567Z,101256.38
2022-10-18T08:02:32.602Z,101258.94
2022-10-18T08:05:19.493Z,101263.25
2022-10-18T08:08:08.107Z,101247.53
2022-10-18T08:10:55.939Z,101253.44
2022-10-18T08:13:43.096Z,101266.53
2022-10-18T08:16:33.793Z,101264.78
2022-10-18T08:19:21.080Z,101268.28
2022-10-18T08:22:07.907Z,101276.81
2022-10-18T08:24:54.873Z,101286.38
2022-10-18T08:27:41.803Z,101209.19
2022-10-18T08:30:29.343Z,101288.84
2022-10-18T08:33:16.240Z,101293.16
2022-10-18T08:36:03.307Z,101295.69
2022-10-18T08:38:50.666Z,101296.47
2022-10-18T08:41:59.431Z,101293.72
2022-10-18T08:44:49.023Z,101285.00
2022-10-18T08:47:40.221Z,101303.13
2022-10-18T08:50:51.205Z,101276.97
2022-10-18T08:53:44.520Z,101302.06
2022-10-18T08:56:35.483Z,101250.78
2022-10-18T08:59:25.537Z,101300.91
2022-10-18T09:02:43.996Z,101313.94
2022-10-18T09:05:34.233Z,101313.81
2022-10-18T09:08:41.256Z,101315.44
2022-10-18T09:12:02.396Z,101316.13
2022-10-18T09:15:07.092Z,101310.75
2022-10-18T09:18:00.203Z,101309.72
2022-10-18T09:20:53.386Z,101285.34
2022-10-18T09:24:00.644Z,101306.84
2022-10-18T09:26:56.819Z,101317.16
2022-10-18T09:30:02.625Z,101317.03
2022-10-18T09:33:08.307Z,101317.81
2022-10-18T09:36:34.101Z,101322.09
2022-10-18T09:39:45.712Z,101328.09
2022-10-18T09:43:02.197Z,101323.53
2022-10-18T09:45:56.123Z,101326.97
2022-10-18T09:48:48.552Z,101334.75
2022-10-18T09:51:45.690Z,101327.63
2022-10-18T09:54:52.008Z,101334.50
2022-10-18T09:57:57.760Z,101289.34
2022-10-18T10:00:48.800Z,101346.69
2022-10-18T10:03:35.671Z,101343.94
2022-10-18T10:06:32.056Z,101348.22
2022-10-18T10:09:20.411Z,101355.19
2022-10-18T10:12:12.219Z,101354.22
2022-10-18T10:15:05.102Z,101347.13
2022-10-18T10:17:53.899Z,101356.75
2022-10-18T10:20:43.809Z,101345.19
2022-10-18T10:23:43.067Z,101341.63
2022-10-18T10:26:53.472Z,101306.03
2022-10-18T10:30:07.240Z,101355.59
2022-10-18T10:33:13.958Z,101348.59
2022-10-18T10:36:01.507Z,101345.81
2022-10-18T10:38:50.690Z,101345.00
2022-10-18T10:41:43.301Z,101351.84
2022-10-18T10:44:39.905Z,101363.16
2022-10-18T10:47:27.045Z,101357.75
2022-10-18T10:50:16.534Z,101358.47
2022-10-18T10:53:08.317Z,101352.09
2022-10-18T10:55:55.472Z,101357.25
2022-10-18T10:58:43.378Z,101376.28
2022-10-18T11:01:56.461Z,101286.53
2022-10-18T11:04:46.816Z,101286.34
2022-10-18T11:07:52.269Z,101359.66
2022-10-18T11:10:45.213Z,101354.97
2022-10-18T11:14:26.473Z,101352.88
2022-10-18T11:17:22.956Z,101348.50
2022-10-18T11:20:27.708Z,101373.47
2022-10-18T11:23:37.355Z,101372.31
2022-10-18T11:26:33.047Z,101363.25
2022-10-18T11:29:26.129Z,101357.69
2022-10-18T11:32:20.401Z,101350.59
2022-10-18T11:35:52.228Z,101362.59
2022-10-18T11:38:52.338Z,101377.38
2022-10-18T11:41:54.581Z,101371.91
2022-10-18T11:45:06.448Z,101371.75
2022-10-18T11:48:18.772Z,101366.28
2022-10-18T11:51:35.383Z,101379.38
2022-10-18T11:54:31.700Z,101382.69
2022-10-18T11:57:59.848Z,101382.53
2022-10-18T12:00:52.759Z,101385.91
2022-10-18T12:03:54.818Z,101395.53
2022-10-18T12:06:46.508Z,101390.13
2022-10-18T12:09:57.744Z,101393.59
2022-10-18T12:12:48.327Z,101387.31
2022-10-18T12:15:47.586Z,101390.78
2022-10-18T12:18:38.597Z,101377.50
2022-10-18T12:21:26.496Z,101380.13
2022-10-18T12:24:27.663Z,101384.28
2022-10-18T12:27:21.380Z,101382.44
2022-10-18T12:30:17.100Z,101340.81
2022-10-18T12:33:26.511Z,101376.03
2022-10-18T12:36:41.812Z,101378.63
2022-10-18T12:39:45.122Z,101375.91
2022-10-18T12:42:48.256Z,101372.38
2022-10-18T12:45:40.979Z,101388.97
2022-10-18T12:48:45.963Z,101388.91
2022-10-18T12:51:34.407Z,101386.19
2022-10-18T12:54:21.348Z,101389.66
2022-10-18T12:57:08.436Z,101399.28
2022-10-18T13:00:04.424Z,101401.00
2022-10-18T13:02:51.616Z,101407.09
2022-10-18T13:06:11.473Z,101407.03
2022-10-18T13:09:03.062Z,101399.06
2022-10-18T13:11:52.501Z,101395.50
2022-10-18T13:15:05.731Z,101393.75
2022-10-18T13:18:05.017Z,101394.69
2022-10-18T13:21:07.169Z,101395.69
2022-10-18T13:24:06.575Z,101402.78
2022-10-18T13:27:41.076Z,101405.53
2022-10-18T13:30:14.616Z,101397.56
2022-10-18T13:33:18.637Z,101404.72
2022-10-18T13:36:00.957Z,101413.63
2022-10-18T13:38:41.627Z,101417.19
2022-10-18T13:41:14.256Z,101414.59
2022-10-18T13:43:53.433Z,101416.44
2022-10-18T13:46:41.717Z,101413.78
2022-10-18T13:49:54.869Z,101413.94
2022-10-18T13:52:51.071Z,101423.56
2022-10-18T13:55:17.932Z,101428.03
2022-10-18T13:58:26.711Z,101427.16
2022-10-18T14:01:52.786Z,101423.84
2022-10-18T14:05:23.868Z,101432.56
2022-10-18T14:08:20.099Z,101435.34
2022-10-18T14:11:19.179Z,101436.28
2022-10-18T14:14:11.957Z,101430.13
2022-10-18T14:17:27.320Z,101434.63
2022-10-18T14:20:28.627Z,101441.75
2022-10-18T14:24:01.807Z,101441.03
2022-10-18T14:26:48.620Z,101315.53
2022-10-18T14:29:40.044Z,101448.22
2022-10-18T14:32:38.367Z,101450.09
2022-10-18T14:35:37.682Z,101458.16
2022-10-18T14:38:26.225Z,101453.94
2022-10-18T14:41:33.439Z,101469.84
2022-10-18T14:44:35.564Z,101458.47
2022-10-18T14:47:34.444Z,101464.75
2022-10-18T14:50:21.590Z,101474.53
2022-10-18T14:53:08.956Z,101476.44
2022-10-18T14:55:55.887Z,101475.69
2022-10-18T14:58:43.412Z,101473.81
2022-10-18T15:01:38.328Z,101477.50
2022-10-18T15:04:30.584Z,101485.56
2022-10-18T15:07:18.796Z,101491.78
2022-10-18T15:10:07.666Z,101487.44
2022-10-18T15:13:09.245Z,101493.66
2022-10-18T15:15:56.900Z,101474.81
2022-10-18T15:18:45.685Z,101495.59
2022-10-18T15:21:45.891Z,101494.88
2022-10-18T15:24:59.721Z,101496.66
2022-10-18T15:27:51.661Z,101503.84
2022-10-18T15:30:58.466Z,101516.34
2022-10-18T15:33:46.830Z,101511.97
2022-10-18T15:36:46.618Z,101513.91
2022-10-18T15:39:37.480Z,101504.47
2022-10-18T15:42:24.423Z,101515.84
2022-10-18T15:45:11.676Z,101506.47
2022-10-18T15:47:58.513Z,101507.53
2022-10-18T15:51:00.760Z,101523.34
2022-10-18T15:53:55.411Z,101524.31
2022-10-18T15:56:51.379Z,101527.03
2022-10-18T15:59:45.565Z,101521.00
2022-10-18T16:02:34.356Z,101523.66
2022-10-18T16:05:22.749Z,101528.13
2022-10-18T16:08:13.113Z,101530.03
2022-10-18T16:11:00.440Z,101546.81
2022-10-18T16:13:47.813Z,101540.66
2022-10-18T16:16:39.209Z,101495.75
2022-10-18T16:19:26.999Z,101547.03
2022-10-18T16:25:06.384Z,101442.13
2022-10-18T16:27:53.197Z,101549.91
2022-10-18T16:30:41.783Z,101552.66
2022-10-18T16:33:28.776Z,101557.19
2022-10-18T16:36:16.448Z,101476.63
2022-10-18T16:39:03.939Z,101562.72
2022-10-18T16:41:50.928Z,101562.81
2022-10-18T16:44:38.284Z,101560.28
2022-10-18T16:47:25.263Z,101583.28
2022-10-18T16:50:12.104Z,101565.13
2022-10-18T16:52:59.004Z,101584.41
2022-10-18T16:55:45.974Z,101591.59
2022-10-18T16:58:38.073Z,101589.06
2022-10-18T17:01:25.111Z,101588.25
2022-10-18T17:04:12.729Z,101578.16
2022-10-18T17:06:59.569Z,101594.66
2022-10-18T17:09:46.551Z,101598.31
2022-10-18T17:12:33.756Z,101598.44
2022-10-18T17:15:20.905Z,101594.13
2022-10-18T17:18:08.140Z,101585.66
2022-10-18T17:20:55.262Z,101603.19
2022-10-18T17:23:42.199Z,101600.56
2022-10-18T17:26:35.190Z,101620.03
2022-10-18T17:29:05.495Z,101614.88
2022-10-18T17:31:52.944Z,101621.16
2022-10-18T17:37:31.988Z,101628.38
2022-10-18T17:40:19.257Z,101597.22
2022-10-18T17:43:06.218Z,101633.91
2022-10-18T17:45:53.063Z,101635.78
2022-10-18T17:48:40.091Z,101629.91
2022-10-18T17:51:28.971Z,101638.56
2022-10-18T17:54:15.804Z,101647.47
2022-10-18T17:57:02.732Z,101653.69
2022-10-18T17:59:49.681Z,101652.91
2022-10-18T18:02:39.661Z,101660.91
2022-10-18T18:05:28.937Z,101653.97
2022-10-18T18:08:16.165Z,101668.09
2022-10-18T18:11:03.099Z,101670.81
2022-10-18T18:13:49.942Z,101671.78
2022-10-18T18:16:42.385Z,101684.19
2022-10-18T18:19:29.909Z,101679.97
2022-10-18T18:22:17.044Z,101685.28
2022-10-18T18:25:03.885Z,101689.69
2022-10-18T18:27:50.794Z,101691.56
2022-10-18T18:30:37.664Z,101698.66
2022-10-18T18:33:24.560Z,101700.53
2022-10-18T18:36:18.049Z,101702.34
2022-10-18T18:39:05.823Z,101701.53
2022-10-18T18:41:52.789Z,101708.66
2022-10-18T18:44:41.113Z,101694.78
2022-10-18T18:47:28.039Z,101711.41
2022-10-18T18:50:14.884Z,101719.41
2022-10-18T18:53:01.771Z,101701.09
2022-10-18T18:55:49.101Z,101718.69
2022-10-18T18:58:36.711Z,101715.22
2022-10-18T19:01:39.998Z,101716.19
2022-10-18T19:04:28.829Z,101707.53
2022-10-18T19:07:16.100Z,101716.34
2022-10-18T19:10:03.085Z,101714.59
2022-10-18T19:12:49.932Z,101723.47
2022-10-18T19:15:36.821Z,101720.91
2022-10-18T19:18:24.097Z,101721.81
2022-10-18T19:21:10.907Z,101727.16
2022-10-18T19:23:57.689Z,101723.72
2022-10-18T19:26:54.398Z,101727.28
2022-10-18T19:29:44.054Z,101722.97
2022-10-18T19:32:40.544Z,101720.41
2022-10-18T19:35:37.858Z,101722.22
2022-10-18T19:38:34.375Z,101724.91
2022-10-18T19:41:48.983Z,101726.75
2022-10-18T19:44:37.859Z,101733.84
2022-10-18T19:47:31.024Z,101736.53
2022-10-18T19:50:17.935Z,101729.56
2022-10-18T19:53:04.865Z,101702.59
2022-10-18T19:55:53.718Z,101741.91
2022-10-18T19:58:40.588Z,101740.19
2022-10-18T20:01:27.458Z,101747.25
2022-10-18T20:04:15.413Z,101742.13
2022-10-18T20:07:03.038Z,101754.41
2022-10-18T20:09:50.269Z,101708.19
2022-10-18T20:12:37.359Z,101757.09
2022-10-18T20:15:25.576Z,101769.41
2022-10-18T20:18:12.408Z,101752.00
2022-10-18T20:20:59.191Z,101773.00
2022-10-18T20:23:46.176Z,101766.91
2022-10-18T20:26:39.072Z,101779.19
2022-10-18T20:29:25.972Z,101782.72
2022-10-18T20:32:12.816Z,101776.63
2022-10-18T20:34:59.680Z,101773.13
2022-10-18T20:37:46.751Z,101781.06
2022-10-18T20:40:34.838Z,101750.59
2022-10-18T20:43:21.698Z,101789.88
2022-10-18T20:46:16.255Z,101794.31
2022-10-18T20:49:03.108Z,101789.97
2022-10-18T20:51:50.088Z,101789.97
2022-10-18T20:54:37.143Z,101797.91
2022-10-18T20:57:24.109Z,101769.94
2022-10-18T21:00:11.218Z,101787.47
2022-10-18T21:02:58.146Z,101799.75
2022-10-18T21:05:45.364Z,101799.78
2022-10-18T21:08:32.228Z,101803.28
2022-10-18T21:11:21.172Z,101799.81
2022-10-18T21:14:16.062Z,101805.97
2022-10-18T21:17:03.796Z,101785.03
2022-10-18T21:19:50.672Z,101772.81
2022-10-18T21:22:38.214Z,101793.72
2022-10-18T21:25:25.616Z,101779.00
2022-10-18T21:28:12.599Z,101816.59
2022-10-18T21:30:59.497Z,101765.13
2022-10-18T21:33:46.569Z,101817.50
2022-10-18T21:36:34.864Z,101821.03
2022-10-18T21:39:26.575Z,101816.66
2022-10-18T21:42:13.459Z,101822.81
2022-10-18T21:45:00.488Z,101826.34
2022-10-18T21:47:47.339Z,101823.72
2022-10-18T21:50:34.499Z,101825.50
2022-10-18T21:53:21.311Z,101829.03
2022-10-18T21:56:08.678Z,101822.97
2022-10-18T21:58:56.584Z,101837.81
2022-10-18T22:02:03.760Z,101826.47
2022-10-18T22:04:50.728Z,101825.59
2022-10-18T22:07:37.816Z,101831.75
2022-10-18T22:10:24.933Z,101816.03
2022-10-18T22:13:11.920Z,101824.75
2022-10-18T22:15:58.743Z,101828.28
2022-10-18T22:18:45.787Z,101835.28
2022-10-18T22:21:35.010Z,101763.69
2022-10-18T22:24:25.586Z,101825.69
2022-10-18T22:27:12.460Z,101833.56
2022-10-18T22:29:59.591Z,101833.59
2022-10-18T22:32:46.407Z,101835.34
2022-10-18T22:35:33.507Z,101838.91
2022-10-18T22:38:20.280Z,101803.06
2022-10-18T22:41:07.194Z,101841.53
2022-10-18T22:43:55.638Z,101843.31
2022-10-18T22:46:44.649Z,101836.31
2022-10-18T22:49:32.262Z,101810.94
2022-10-18T22:52:19.519Z,101837.16
2022-10-18T22:55:06.367Z,101843.34
2022-10-18T22:57:53.461Z,101849.50
2022-10-18T23:00:40.291Z,101844.25
2022-10-18T23:03:27.476Z,101846.00
2022-10-18T23:06:14.285Z,101852.16
2022-10-18T23:09:01.393Z,101853.00
2022-10-18T23:11:48.731Z,101853.03
2022-10-18T23:14:35.788Z,101853.03
2022-10-18T23:17:22.804Z,101848.66
2022-10-18T23:20:09.744Z,101828.56
2022-10-18T23:22:56.767Z,101852.19
2022-10-18T23:25:43.612Z,101851.31
2022-10-18T23:28:30.585Z,101860.06
2022-10-18T23:31:17.583Z,101860.97
2022-10-18T23:34:06.343Z,101856.59
2022-10-18T23:36:54.032Z,101863.59
2022-10-18T23:39:41.115Z,101859.25
2022-10-18T23:42:28.155Z,101867.13
2022-10-18T23:45:15.117Z,101873.25
2022-10-18T23:48:02.170Z,101865.34
2022-10-18T23:50:49.111Z,101866.25
2022-10-18T23:53:36.024Z,101864.50
2022-10-18T23:56:26.768Z,101865.34
2022-10-18T23:59:13.709Z,101862.75
